Terminal Aerodrome Forecast
Issued by NWS

Home | Current Version | Previous Version | Text Only | Print | Product List | Glossary On
Versions: 1 2 3 4 5 6 7 8 9 10 11 12 13 14
714
FTUS45 KABQ 221735
TAFGUP
TAF
KGUP 221735Z 2218/2318 24018G28KT P6SM FEW070 BKN120
      TEMPO 2218/2219 24010KT
     FM222100 24025G35KT P6SM SCT060 BKN100
     FM230200 23015G25KT P6SM BKN100
     FM230600 23015G25KT P6SM SKC
     FM231700 24025G35KT P6SM FEW060=

USA.gov is the U.S. government's official web portal to all federal, state and local government web resources and services.